createdAt,value
2022-09-01T00:01:43.241Z,18.38
2022-09-01T00:04:13.618Z,19.01
2022-09-01T00:06:41.145Z,18.88
2022-09-01T00:09:13.888Z,18.85
2022-09-01T00:11:43.345Z,18.89
2022-09-01T00:14:30.593Z,18.82
2022-09-01T00:17:04.734Z,18.13
2022-09-01T00:19:33.468Z,17.86
2022-09-01T00:22:01.142Z,18.15
2022-09-01T00:24:28.457Z,18.19
2022-09-01T00:26:56.865Z,17.89
2022-09-01T00:29:24.992Z,17.55
2022-09-01T00:31:52.267Z,18.36
2022-09-01T00:34:19.012Z,18.58
2022-09-01T00:36:45.957Z,17.98
2022-09-01T00:39:14.539Z,18.49
2022-09-01T00:41:44.834Z,17.83
2022-09-01T00:44:15.464Z,18.47
2022-09-01T00:46:49.618Z,18.33
2022-09-01T00:49:45.251Z,18.31
2022-09-01T00:52:27.348Z,18.64
2022-09-01T00:54:58.380Z,18.66
2022-09-01T00:57:25.760Z,18.19
2022-09-01T00:59:59.095Z,18.67
2022-09-01T01:02:26.126Z,18.56
2022-09-01T01:04:53.348Z,18.19
2022-09-01T01:07:23.072Z,18.01
2022-09-01T01:09:51.360Z,18.28
2022-09-01T01:12:18.615Z,18.14
2022-09-01T01:14:50.667Z,17.62
2022-09-01T01:17:20.364Z,17.02
2022-09-01T01:20:09.166Z,17.47
2022-09-01T01:23:05.448Z,16.75
2022-09-01T01:25:48.888Z,16.55
2022-09-01T01:28:22.430Z,17.21
2022-09-01T01:30:53.738Z,17.25
2022-09-01T01:33:23.282Z,17.42
2022-09-01T01:35:52.773Z,17.58
2022-09-01T01:38:23.031Z,17.61
2022-09-01T01:40:51.928Z,17.83
2022-09-01T01:43:21.906Z,17.85
2022-09-01T01:45:52.607Z,17.83
2022-09-01T01:48:23.891Z,17.91
2022-09-01T01:50:54.775Z,17.95
2022-09-01T01:53:22.207Z,18.10
2022-09-01T01:55:49.892Z,18.15
2022-09-01T01:58:19.947Z,18.10
2022-09-01T02:00:49.347Z,17.92
2022-09-01T02:03:19.113Z,17.52
2022-09-01T02:05:52.706Z,17.79
2022-09-01T02:08:20.919Z,17.73
2022-09-01T02:10:50.574Z,17.68
2022-09-01T02:13:21.000Z,17.50
2022-09-01T02:15:53.941Z,17.20
2022-09-01T02:18:28.726Z,16.87
2022-09-01T02:20:56.357Z,17.50
2022-09-01T02:23:26.474Z,17.60
2022-09-01T02:26:16.258Z,17.67
2022-09-01T02:28:50.937Z,17.68
2022-09-01T02:31:21.033Z,17.75
2022-09-01T02:33:48.686Z,17.51
2022-09-01T02:36:17.900Z,16.44
2022-09-01T02:38:46.805Z,17.84
2022-09-01T02:41:23.264Z,17.86
2022-09-01T02:43:51.221Z,17.80
2022-09-01T02:46:24.488Z,17.72
2022-09-01T02:48:51.923Z,17.41
2022-09-01T02:51:21.004Z,17.57
2022-09-01T02:53:52.958Z,17.46
2022-09-01T02:56:25.597Z,17.47
2022-09-01T02:58:53.704Z,17.48
2022-09-01T03:01:27.229Z,17.31
2022-09-01T03:03:56.653Z,17.47
2022-09-01T03:06:24.712Z,17.51
2022-09-01T03:08:53.718Z,17.35
2022-09-01T03:11:21.021Z,17.23
2022-09-01T03:13:47.686Z,17.07
2022-09-01T03:16:14.658Z,17.42
2022-09-01T03:18:42.932Z,15.73
2022-09-01T03:21:10.344Z,17.47
2022-09-01T03:23:38.144Z,17.52
2022-09-01T03:26:04.884Z,17.54
2022-09-01T03:28:32.113Z,17.50
2022-09-01T03:30:59.202Z,17.62
2022-09-01T03:33:27.765Z,17.58
2022-09-01T03:35:55.553Z,17.59
2022-09-01T03:38:24.448Z,17.64
2022-09-01T03:40:59.096Z,17.57
2022-09-01T03:43:27.713Z,17.49
2022-09-01T03:46:02.348Z,17.17
2022-09-01T03:48:31.732Z,17.58
2022-09-01T03:51:02.848Z,17.70
2022-09-01T03:53:37.784Z,17.15
2022-09-01T03:56:05.519Z,17.56
2022-09-01T03:58:32.913Z,17.41
2022-09-01T04:01:02.197Z,17.48
2022-09-01T04:03:34.527Z,17.18
2022-09-01T04:06:04.426Z,17.62
2022-09-01T04:08:32.547Z,17.73
2022-09-01T04:11:14.011Z,17.64
2022-09-01T04:13:41.567Z,17.68
2022-09-01T04:16:46.096Z,17.32
2022-09-01T04:19:21.062Z,17.56
2022-09-01T04:21:53.896Z,17.55
2022-09-01T04:24:23.959Z,15.42
2022-09-01T04:26:52.259Z,17.48
2022-09-01T04:29:27.315Z,17.70
2022-09-01T04:32:02.369Z,17.28
2022-09-01T04:34:37.567Z,18.02
2022-09-01T04:37:13.300Z,18.17
2022-09-01T04:39:40.567Z,18.45
2022-09-01T04:42:09.092Z,18.40
2022-09-01T04:44:36.825Z,18.12
2022-09-01T04:47:03.914Z,17.93
2022-09-01T04:49:33.851Z,17.69
2022-09-01T04:52:00.970Z,17.44
2022-09-01T04:54:27.686Z,18.13
2022-09-01T04:56:55.068Z,17.55
2022-09-01T04:59:24.126Z,18.83
2022-09-01T05:01:51.052Z,18.52
2022-09-01T05:04:27.586Z,19.03
2022-09-01T05:06:59.835Z,19.39
2022-09-01T05:09:32.463Z,19.16
2022-09-01T05:12:11.035Z,18.89
2022-09-01T05:14:42.399Z,19.37
2022-09-01T05:17:13.716Z,19.93
2022-09-01T05:19:43.246Z,19.62
2022-09-01T05:22:10.661Z,20.29
2022-09-01T05:24:41.892Z,20.50
2022-09-01T05:27:10.594Z,20.67
2022-09-01T05:29:38.614Z,20.14
2022-09-01T05:32:10.177Z,21.02
2022-09-01T05:34:38.899Z,20.83
2022-09-01T05:37:08.621Z,21.27
2022-09-01T05:39:38.111Z,21.22
2022-09-01T05:42:08.205Z,21.26
2022-09-01T05:44:44.049Z,21.82
2022-09-01T05:47:20.783Z,21.87
2022-09-01T05:49:49.940Z,22.18
2022-09-01T05:52:16.696Z,22.09
2022-09-01T05:54:43.569Z,22.58
2022-09-01T05:57:32.830Z,22.56
2022-09-01T05:59:57.673Z,22.88
2022-09-01T06:02:26.384Z,22.57
2022-09-01T06:04:57.325Z,21.81
2022-09-01T06:07:25.624Z,23.37
2022-09-01T06:09:53.842Z,22.67
2022-09-01T06:12:24.048Z,23.61
2022-09-01T06:14:53.890Z,23.06
2022-09-01T06:17:25.160Z,23.93
2022-09-01T06:19:55.766Z,23.76
2022-09-01T06:22:24.122Z,24.01
2022-09-01T06:24:56.932Z,23.66
2022-09-01T06:27:29.467Z,23.88
2022-09-01T06:29:56.516Z,24.15
2022-09-01T06:32:25.909Z,22.82
2022-09-01T06:34:52.877Z,22.71
2022-09-01T06:37:23.172Z,23.72
2022-09-01T06:39:50.930Z,23.78
2022-09-01T06:42:18.198Z,24.41
2022-09-01T06:44:46.129Z,24.30
2022-09-01T06:47:13.206Z,24.49
2022-09-01T06:49:41.004Z,24.45
2022-09-01T06:52:08.549Z,24.16
2022-09-01T06:54:39.288Z,24.76
2022-09-01T06:59:54.284Z,25.56
2022-09-01T07:02:22.333Z,24.55
2022-09-01T07:04:54.117Z,24.05
2022-09-01T07:10:25.404Z,24.74
2022-09-01T07:13:11.654Z,25.11
2022-09-01T07:18:31.373Z,24.17
2022-09-01T07:21:35.754Z,25.66
2022-09-01T07:24:07.717Z,25.60
2022-09-01T07:26:35.763Z,25.80
2022-09-01T07:34:47.667Z,26.60
2022-09-01T07:42:56.765Z,25.86
2022-09-01T07:45:30.288Z,26.46
2022-09-01T07:48:06.509Z,25.98
2022-09-01T07:50:41.684Z,26.00
2022-09-01T07:53:25.801Z,26.31
2022-09-01T07:55:54.929Z,25.97
2022-09-01T07:58:25.639Z,26.37
2022-09-01T08:00:54.527Z,26.39
2022-09-01T08:03:24.710Z,26.93
2022-09-01T08:05:57.649Z,26.88
2022-09-01T08:08:29.104Z,27.16
2022-09-01T08:11:04.356Z,27.55
2022-09-01T08:13:32.260Z,27.47
2022-09-01T08:16:07.490Z,27.95
2022-09-01T08:18:51.344Z,27.14
2022-09-01T08:21:22.151Z,27.23
2022-09-01T08:23:53.835Z,27.82
2022-09-01T08:26:23.960Z,28.00
2022-09-01T08:28:55.284Z,27.89
2022-09-01T08:31:23.945Z,28.37
2022-09-01T08:33:51.949Z,27.95
2022-09-01T08:36:23.763Z,27.50
2022-09-01T08:38:52.334Z,27.84
2022-09-01T08:41:28.631Z,28.36
2022-09-01T08:44:20.555Z,28.46
2022-09-01T08:46:48.771Z,28.60
2022-09-01T08:49:26.130Z,28.61
2022-09-01T08:52:25.781Z,28.40
2022-09-01T08:54:58.387Z,28.68
2022-09-01T08:57:31.137Z,27.69
2022-09-01T08:59:58.018Z,28.79
2022-09-01T09:02:27.506Z,29.15
2022-09-01T09:05:34.948Z,29.14
2022-09-01T09:08:39.703Z,29.41
2022-09-01T09:11:28.092Z,28.50
2022-09-01T09:14:00.321Z,29.13
2022-09-01T09:16:37.693Z,28.58
2022-09-01T09:19:09.168Z,28.63
2022-09-01T09:21:41.049Z,29.13
2022-09-01T09:24:16.573Z,29.40
2022-09-01T09:26:52.500Z,28.28
2022-09-01T09:29:20.725Z,28.62
2022-09-01T09:31:51.436Z,28.56
2022-09-01T09:34:32.846Z,29.67
2022-09-01T09:37:27.615Z,29.75
2022-09-01T09:40:12.209Z,30.24
2022-09-01T09:42:41.133Z,30.47
2022-09-01T09:45:22.648Z,30.75
2022-09-01T09:47:49.730Z,30.54
2022-09-01T09:50:32.366Z,31.13
2022-09-01T09:53:16.174Z,30.45
2022-09-01T09:55:55.935Z,31.52
2022-09-01T09:58:26.717Z,31.47
2022-09-01T10:01:17.306Z,31.55
2022-09-01T10:03:50.465Z,30.90
2022-09-01T10:06:32.044Z,31.41
2022-09-01T10:09:00.716Z,31.65
2022-09-01T10:11:41.582Z,29.74
2022-09-01T10:14:51.624Z,31.60
2022-09-01T10:17:15.739Z,31.67
2022-09-01T10:20:11.319Z,31.80
2022-09-01T10:22:39.907Z,31.61
2022-09-01T10:25:10.473Z,30.39
2022-09-01T10:27:41.962Z,31.34
2022-09-01T10:30:20.066Z,31.62
2022-09-01T10:32:55.970Z,31.44
2022-09-01T10:35:30.279Z,30.18
2022-09-01T10:38:00.130Z,31.30
2022-09-01T10:40:31.151Z,31.16
2022-09-01T10:43:27.394Z,30.08
2022-09-01T10:45:58.850Z,31.10
2022-09-01T10:48:46.225Z,31.04
2022-09-01T10:51:28.135Z,30.72
2022-09-01T10:54:02.085Z,30.74
2022-09-01T10:56:52.035Z,30.45
2022-09-01T10:59:32.856Z,30.31
2022-09-01T11:02:27.927Z,30.56
2022-09-01T11:04:55.341Z,29.86
2022-09-01T11:07:29.779Z,29.88
2022-09-01T11:10:32.713Z,30.16
2022-09-01T11:13:24.936Z,30.23
2022-09-01T11:15:51.733Z,29.85
2022-09-01T11:18:27.351Z,29.98
2022-09-01T11:20:56.311Z,30.16
2022-09-01T11:23:27.912Z,30.30
2022-09-01T11:28:47.807Z,30.50
2022-09-01T11:31:30.988Z,30.57
2022-09-01T11:34:03.641Z,30.68
2022-09-01T11:36:32.067Z,30.72
2022-09-01T11:39:19.146Z,30.74
2022-09-01T11:41:55.867Z,30.90
2022-09-01T11:44:51.609Z,30.76
2022-09-01T11:47:27.309Z,29.85
2022-09-01T11:49:59.885Z,30.80
2022-09-01T11:52:30.560Z,30.50
2022-09-01T11:54:59.025Z,28.95
2022-09-01T11:57:33.578Z,27.99
2022-09-01T12:00:06.777Z,27.14
2022-09-01T12:02:36.715Z,26.51
2022-09-01T12:05:25.218Z,26.44
2022-09-01T12:07:52.840Z,26.63
2022-09-01T12:10:27.564Z,26.95
2022-09-01T12:13:12.353Z,26.45
2022-09-01T12:16:06.924Z,27.11
2022-09-01T12:18:44.645Z,27.83
2022-09-01T12:21:27.213Z,28.40
2022-09-01T12:23:55.256Z,28.38
2022-09-01T12:26:31.099Z,28.86
2022-09-01T12:28:58.369Z,28.72
2022-09-01T12:31:26.599Z,28.51
2022-09-01T12:33:55.161Z,28.56
2022-09-01T12:36:24.771Z,28.36
2022-09-01T12:38:56.669Z,28.05
2022-09-01T12:41:39.167Z,27.74
2022-09-01T12:44:31.841Z,28.09
2022-09-01T12:47:11.030Z,27.31
2022-09-01T12:49:47.777Z,26.82
2022-09-01T12:52:26.175Z,27.29
2022-09-01T12:54:59.064Z,27.31
2022-09-01T12:57:30.150Z,27.35
2022-09-01T13:00:12.448Z,27.63
2022-09-01T13:02:43.082Z,27.79
2022-09-01T13:05:24.032Z,28.33
2022-09-01T13:08:04.150Z,28.53
2022-09-01T13:10:39.550Z,29.16
2022-09-01T13:13:07.693Z,29.52
2022-09-01T13:15:36.057Z,29.69
2022-09-01T13:18:03.405Z,30.23
2022-09-01T13:20:30.493Z,30.63
2022-09-01T13:22:57.422Z,30.26
2022-09-01T13:25:24.932Z,31.02
2022-09-01T13:27:54.863Z,31.52
2022-09-01T13:30:28.391Z,32.01
2022-09-01T13:35:42.749Z,32.64
2022-09-01T13:38:09.936Z,33.33
2022-09-01T13:40:36.879Z,32.42
2022-09-01T13:43:04.788Z,31.14
2022-09-01T13:45:32.000Z,32.25
2022-09-01T13:48:15.728Z,33.31
2022-09-01T13:53:31.819Z,35.40
2022-09-01T13:55:58.649Z,36.23
2022-09-01T13:58:25.294Z,36.20
2022-09-01T14:00:52.233Z,35.90
2022-09-01T14:03:22.262Z,33.45
2022-09-01T14:05:49.841Z,34.35
2022-09-01T14:08:19.839Z,34.84
2022-09-01T14:10:50.893Z,34.97
2022-09-01T14:13:20.316Z,35.68
2022-09-01T14:15:48.315Z,34.53
2022-09-01T14:18:16.514Z,34.58
2022-09-01T14:20:46.256Z,34.38
2022-09-01T14:23:14.037Z,31.17
2022-09-01T14:25:50.081Z,31.90
2022-09-01T14:28:20.308Z,31.79
2022-09-01T14:30:48.969Z,31.14
2022-09-01T14:33:16.154Z,30.16
2022-09-01T14:35:46.891Z,30.03
2022-09-01T14:38:14.867Z,30.10
2022-09-01T14:40:43.131Z,30.04
2022-09-01T14:43:14.683Z,29.95
2022-09-01T14:45:46.015Z,29.63
2022-09-01T14:48:15.407Z,29.21
2022-09-01T14:50:44.312Z,29.38
2022-09-01T14:53:12.277Z,29.25
2022-09-01T14:55:39.284Z,28.78
2022-09-01T14:58:07.017Z,28.82
2022-09-01T15:00:37.012Z,28.84
2022-09-01T15:03:03.869Z,28.52
2022-09-01T15:05:37.664Z,28.63
2022-09-01T15:08:08.278Z,25.89
2022-09-01T15:10:35.556Z,25.24
2022-09-01T15:13:02.736Z,27.83
2022-09-01T15:15:30.111Z,27.77
2022-09-01T15:17:59.360Z,27.47
2022-09-01T15:20:45.168Z,27.56
2022-09-01T15:23:21.623Z,27.26
2022-09-01T15:25:50.651Z,27.66
2022-09-01T15:28:17.914Z,27.48
2022-09-01T15:30:46.476Z,27.01
2022-09-01T15:33:15.757Z,27.20
2022-09-01T15:35:44.326Z,27.19
2022-09-01T15:38:14.908Z,26.99
2022-09-01T15:40:44.894Z,27.17
2022-09-01T15:43:21.277Z,26.80
2022-09-01T15:45:48.411Z,27.25
2022-09-01T15:48:15.628Z,26.99
2022-09-01T15:50:42.347Z,27.21
2022-09-01T15:53:13.170Z,27.54
2022-09-01T15:55:45.672Z,27.57
2022-09-01T15:58:16.331Z,27.70
2022-09-01T16:00:44.098Z,27.71
2022-09-01T16:03:11.565Z,27.41
2022-09-01T16:05:39.866Z,27.17
2022-09-01T16:08:09.892Z,27.22
2022-09-01T16:10:40.140Z,27.26
2022-09-01T16:13:07.556Z,27.21
2022-09-01T16:15:35.535Z,26.87
2022-09-01T16:18:42.161Z,26.93
2022-09-01T16:21:47.761Z,27.19
2022-09-01T16:24:14.820Z,26.82
2022-09-01T16:26:45.992Z,27.15
2022-09-01T16:29:44.550Z,27.50
2022-09-01T16:32:12.187Z,26.90
2022-09-01T16:34:47.210Z,27.42
2022-09-01T16:37:36.092Z,27.41
2022-09-01T16:40:25.042Z,27.30
2022-09-01T16:43:16.291Z,27.11
2022-09-01T16:46:04.225Z,27.15
2022-09-01T16:48:47.175Z,26.34
2022-09-01T16:51:30.262Z,26.97
2022-09-01T16:54:35.060Z,26.86
2022-09-01T16:57:04.804Z,26.79
2022-09-01T16:59:51.951Z,26.62
2022-09-01T17:02:27.630Z,26.66
2022-09-01T17:05:33.549Z,26.55
2022-09-01T17:08:13.723Z,26.19
2022-09-01T17:11:09.971Z,25.86
2022-09-01T17:13:41.732Z,25.61
2022-09-01T17:16:12.704Z,26.30
2022-09-01T17:18:51.421Z,26.14
2022-09-01T17:21:35.643Z,25.97
2022-09-01T17:24:28.572Z,25.89
2022-09-01T17:27:04.822Z,23.88
2022-09-01T17:29:43.638Z,25.77
2022-09-01T17:32:32.274Z,25.62
2022-09-01T17:35:18.152Z,25.41
2022-09-01T17:38:18.728Z,25.37
2022-09-01T17:41:36.906Z,25.22
2022-09-01T17:44:18.121Z,25.13
2022-09-01T17:46:57.200Z,25.06
2022-09-01T17:49:39.191Z,23.87
2022-09-01T17:52:19.546Z,24.86
2022-09-01T17:55:11.713Z,24.85
2022-09-01T17:57:59.141Z,24.60
2022-09-01T18:00:52.889Z,24.68
2022-09-01T18:03:47.370Z,24.68
2022-09-01T18:06:26.208Z,24.66
2022-09-01T18:08:58.278Z,24.36
2022-09-01T18:11:38.093Z,24.00
2022-09-01T18:14:30.272Z,24.27
2022-09-01T18:17:18.572Z,24.51
2022-09-01T18:19:52.878Z,24.04
2022-09-01T18:22:25.037Z,24.31
2022-09-01T18:25:11.308Z,24.32
2022-09-01T18:27:46.324Z,24.37
2022-09-01T18:30:16.756Z,23.98
2022-09-01T18:32:59.740Z,24.37
2022-09-01T18:35:49.774Z,23.49
2022-09-01T18:38:16.640Z,24.25
2022-09-01T18:41:05.422Z,24.25
2022-09-01T18:43:41.027Z,24.14
2022-09-01T18:46:34.439Z,24.15
2022-09-01T18:49:07.554Z,24.03
2022-09-01T18:51:56.898Z,24.10
2022-09-01T18:54:43.346Z,23.95
2022-09-01T18:57:15.770Z,24.04
2022-09-01T19:00:30.916Z,23.71
2022-09-01T19:03:13.951Z,23.59
2022-09-01T19:05:55.236Z,23.44
2022-09-01T19:08:33.818Z,23.22
2022-09-01T19:11:03.314Z,23.52
2022-09-01T19:13:36.421Z,23.40
2022-09-01T19:16:34.078Z,23.51
2022-09-01T19:19:12.388Z,23.30
2022-09-01T19:21:39.590Z,23.64
2022-09-01T19:24:13.845Z,23.59
2022-09-01T19:26:47.698Z,23.07
2022-09-01T19:29:19.309Z,22.54
2022-09-01T19:31:56.555Z,22.91
2022-09-01T19:34:32.569Z,22.60
2022-09-01T19:37:01.654Z,23.19
2022-09-01T19:39:38.300Z,23.53
2022-09-01T19:42:25.158Z,23.26
2022-09-01T19:44:57.679Z,23.33
2022-09-01T19:47:41.883Z,23.43
2022-09-01T19:50:31.230Z,23.09
2022-09-01T19:53:04.926Z,23.39
2022-09-01T19:56:04.648Z,23.28
2022-09-01T19:59:09.801Z,23.02
2022-09-01T20:01:43.572Z,22.88
2022-09-01T20:04:43.045Z,21.45
2022-09-01T20:07:23.276Z,22.14
2022-09-01T20:10:10.193Z,22.49
2022-09-01T20:12:58.954Z,22.61
2022-09-01T20:15:39.566Z,22.70
2022-09-01T20:18:14.875Z,22.66
2022-09-01T20:20:46.116Z,22.03
2022-09-01T20:23:33.792Z,22.75
2022-09-01T20:26:49.855Z,22.76
2022-09-01T20:29:41.637Z,22.72
2022-09-01T20:32:10.167Z,21.89
2022-09-01T20:34:49.411Z,22.38
2022-09-01T20:37:18.820Z,22.29
2022-09-01T20:40:20.718Z,22.20
2022-09-01T20:43:12.857Z,22.11
2022-09-01T20:45:40.480Z,21.47
2022-09-01T20:48:22.471Z,22.23
2022-09-01T20:50:52.298Z,21.17
2022-09-01T20:53:47.963Z,21.90
2022-09-01T20:56:27.463Z,22.19
2022-09-01T20:59:21.026Z,22.42
2022-09-01T21:01:59.359Z,22.38
2022-09-01T21:04:52.259Z,22.40
2022-09-01T21:07:28.066Z,21.56
2022-09-01T21:10:18.912Z,22.53
2022-09-01T21:12:57.289Z,22.48
2022-09-01T21:15:45.263Z,22.28
2022-09-01T21:18:18.036Z,22.11
2022-09-01T21:21:03.766Z,21.94
2022-09-01T21:23:31.135Z,22.16
2022-09-01T21:25:58.747Z,21.71
2022-09-01T21:28:28.329Z,21.93
2022-09-01T21:30:58.170Z,21.99
2022-09-01T21:33:28.083Z,22.06
2022-09-01T21:35:55.711Z,21.87
2022-09-01T21:38:22.532Z,21.53
2022-09-01T21:40:50.674Z,21.86
2022-09-01T21:43:41.669Z,22.06
2022-09-01T21:46:10.129Z,21.52
2022-09-01T21:48:36.876Z,20.81
2022-09-01T21:51:04.856Z,22.30
2022-09-01T21:53:32.643Z,21.65
2022-09-01T21:55:59.784Z,21.63
2022-09-01T21:58:26.392Z,21.68
2022-09-01T22:00:53.192Z,21.62
2022-09-01T22:03:20.408Z,22.32
2022-09-01T22:05:47.152Z,21.77
2022-09-01T22:08:17.378Z,22.38
2022-09-01T22:10:49.493Z,22.48
2022-09-01T22:13:16.830Z,22.26
2022-09-01T22:15:46.901Z,22.37
2022-09-01T22:18:14.597Z,22.51
2022-09-01T22:20:41.796Z,22.34
2022-09-01T22:23:09.736Z,22.18
2022-09-01T22:25:42.974Z,22.09
2022-09-01T22:28:10.550Z,22.24
2022-09-01T22:30:43.199Z,22.20
2022-09-01T22:33:09.924Z,22.32
2022-09-01T22:35:44.001Z,22.18
2022-09-01T22:38:11.499Z,21.59
2022-09-01T22:40:51.427Z,21.52
2022-09-01T22:43:19.215Z,22.13
2022-09-01T22:45:48.741Z,21.56
2022-09-01T22:48:17.613Z,21.94
2022-09-01T22:50:45.733Z,21.98
2022-09-01T22:53:15.157Z,22.13
2022-09-01T22:55:45.089Z,21.91
2022-09-01T22:58:12.599Z,22.07
2022-09-01T23:00:48.163Z,22.34
2022-09-01T23:03:16.148Z,22.41
2022-09-01T23:05:43.777Z,22.35
2022-09-01T23:08:11.706Z,22.06
2022-09-01T23:10:38.499Z,22.30
2022-09-01T23:13:05.195Z,22.08
2022-09-01T23:15:33.809Z,22.61
2022-09-01T23:18:00.521Z,22.64
2022-09-01T23:20:28.244Z,22.54
2022-09-01T23:22:55.222Z,22.44
2022-09-01T23:25:21.860Z,22.26
2022-09-01T23:27:48.690Z,22.07
2022-09-01T23:30:16.285Z,21.67
2022-09-01T23:32:43.051Z,21.74
2022-09-01T23:35:10.337Z,21.43
2022-09-01T23:37:37.031Z,20.98
2022-09-01T23:40:05.879Z,21.43
2022-09-01T23:42:32.565Z,21.34
2022-09-01T23:44:59.171Z,21.35
2022-09-01T23:47:25.891Z,21.36
2022-09-01T23:49:52.523Z,21.27
2022-09-01T23:52:19.274Z,20.91
2022-09-01T23:54:45.976Z,21.08
2022-09-01T23:57:12.894Z,20.88
2022-09-01T23:59:39.662Z,21.07
